Crynant, United Kingdom
Current Conditions -  °F | °C
As of 5:50 AM on Thursday 27 Nov 2014 (Local Time) from EGOP Reporting Station
Clear Clear  
Wind Chill: 34°   Ceiling: Unl
Heat Index: 34°   Visibility: 0.18mi
Dew Point: 34°   Wind: 1mph
Humidity: 100%   Direction: 110°ESE
Pressure: 29.62"   Gusts: NA
Location:  51.73°N, 3.75°W
Report Text: EGOP 270550Z AUTO 11001KT 0300 // NCD 01/01 Q1003
Loading
Personal Weather Stations






























Interactive Weather Map New forecast layout! Learn more

10-Day Weather Forecast

Advertisements
Track Severe Weather on mobile